HE32 weather

Al Mansurah Airport
Dakahlia Governorate, Egypt

Public forecast

Using degrees Celsius for public forecast. Weather courtesy of forecast.io.

METAR (pilot weather report)

Closest report is Port Said Airport, 45.5 nm (84.2 km) ENE. Retrieved 2019/03/26 17:00 UTC (2 hours ago):

HEPS 261700Z 32009KT 9999 SCT025 17/12 Q1015 NOSIG

TAF (pilot weather forecast)

Forecast is more than 12 hours old.

Closest forecast is Port Said Airport, 45.5 nm (84.2 km) ENE. Retrieved 2019/03/25 12:17 UTC (1 day ago):

TAF HEPS 251100Z 2512/2618 35010G20KT 9999 SCT020 TEMPO 2512/2515 4000 RA BKN025